Time;durP1;ratioP1;P1;durP2;ratioP2;P2;SDS_P1;SDS_P2;PMS_P1;PMS_P2;Temp;Humidity;BMP_temperature;BMP_pressure;BME280_temperature;BME280_humidity;BME280_pressure;Samples;Min_cycle;Max_cycle;Signal;HPM_P1;HPM_P2
2022/04/27 00:01:52;;;;;;;5.70;5.10;;;;;;;12.88;63.25;99247.66;1705280;82;21207;-66
2022/04/27 00:04:20;;;;;;;5.50;5.10;;;;;;;12.88;63.35;99250.83;1711205;82;21039;-66
2022/04/27 00:06:47;;;;;;;5.85;5.35;;;;;;;12.87;63.55;99254.54;1704616;82;20904;-66
2022/04/27 00:09:14;;;;;;;7.85;4.65;;;;;;;12.85;63.65;99252.05;1708295;82;21010;-66
2022/04/27 00:11:41;;;;;;;5.42;5.03;;;;;;;12.84;63.79;99254.91;1703766;82;21091;-66
2022/04/27 00:14:08;;;;;;;5.10;4.62;;;;;;;12.83;63.91;99255.92;1711777;82;21155;-65
2022/04/27 00:16:36;;;;;;;5.53;5.03;;;;;;;12.80;64.03;99258.99;1703586;82;20963;-66
2022/04/27 00:19:03;;;;;;;5.67;5.05;;;;;;;12.79;64.15;99260.00;1706383;82;21000;-66
2022/04/27 00:21:29;;;;;;;5.62;5.12;;;;;;;12.78;64.24;99261.00;1718180;82;21070;-64
2022/04/27 00:23:58;;;;;;;5.10;4.70;;;;;;;12.76;64.25;99261.20;1710934;82;20970;-65
2022/04/27 00:26:24;;;;;;;5.55;5.05;;;;;;;12.73;64.36;99261.58;1704507;82;21231;-63
2022/04/27 00:28:51;;;;;;;5.25;4.80;;;;;;;12.72;64.45;99269.25;1714519;82;21047;-65
2022/04/27 00:31:18;;;;;;;4.87;4.47;;;;;;;12.71;64.46;99262.78;1723561;82;20972;-65
2022/04/27 00:33:46;;;;;;;5.00;4.35;;;;;;;12.67;64.53;99266.33;1706904;82;20888;-67
2022/04/27 00:36:12;;;;;;;4.72;4.35;;;;;;;12.70;64.52;99272.62;1712785;82;20987;-65
2022/04/27 00:38:39;;;;;;;5.08;4.58;;;;;;;12.70;64.53;99261.12;1721269;82;21180;-65
2022/04/27 00:41:08;;;;;;;5.00;4.60;;;;;;;12.71;64.53;99261.45;1712071;82;20916;-66
2022/04/27 00:43:39;;;;;;;4.05;3.60;;;;;;;12.68;64.59;99268.49;1711610;82;20936;-66
2022/04/27 00:46:05;;;;;;;5.15;4.65;;;;;;;12.68;64.55;99268.49;1712723;82;20952;-66
2022/04/27 00:48:35;;;;;;;5.37;4.87;;;;;;;12.66;64.51;99270.03;1722486;82;20918;-66
2022/04/27 00:51:03;;;;;;;4.47;4.08;;;;;;;12.66;64.51;99270.03;1684913;82;20856;-65
2022/04/27 00:53:30;;;;;;;4.75;4.35;;;;;;;12.65;64.57;99268.86;1704534;82;20935;-65
2022/04/27 00:55:58;;;;;;;5.12;4.62;;;;;;;12.65;64.61;99278.20;1712988;82;20980;-65
2022/04/27 00:58:26;;;;;;;4.60;4.20;;;;;;;12.64;64.65;99281.41;1707976;82;21020;-65
2022/04/27 01:00:54;;;;;;;8.03;4.50;;;;;;;12.64;64.61;99276.57;1704648;82;20923;-66
2022/04/27 01:03:23;;;;;;;4.67;4.17;;;;;;;12.63;64.67;99281.58;1704635;82;21224;-67
2022/04/27 01:05:51;;;;;;;5.10;4.60;;;;;;;12.60;64.76;99276.11;1706525;82;20990;-65
2022/04/27 01:08:22;;;;;;;4.65;4.22;;;;;;;12.58;64.80;99273.31;1703504;83;20987;-64
2022/04/27 01:10:50;;;;;;;4.67;4.28;;;;;;;12.56;64.91;99281.52;1713943;82;21160;-65
2022/04/27 01:13:18;;;;;;;5.20;4.70;;;;;;;12.59;64.97;99281.65;1697064;83;20892;-65
2022/04/27 01:15:46;;;;;;;4.50;4.10;;;;;;;12.57;64.96;99279.15;1714092;82;21215;-65
2022/04/27 01:18:13;;;;;;;4.92;4.42;;;;;;;12.58;65.01;99289.32;1713786;82;20900;-64
2022/04/27 01:20:44;;;;;;;4.80;4.40;;;;;;;12.57;64.98;99286.32;1700168;83;21092;-65
2022/04/27 01:23:14;;;;;;;7.37;4.22;;;;;;;12.56;65.01;99284.69;1697071;83;21478;-65
2022/04/27 01:25:57;;;;;;;5.08;3.90;;;;;;;12.56;65.07;99290.02;1704701;82;20983;-65
2022/04/27 01:28:26;;;;;;;4.75;4.35;;;;;;;12.56;65.12;99286.85;1714274;82;21267;-67
2022/04/27 01:31:03;;;;;;;4.65;4.25;;;;;;;12.57;65.17;99292.48;1704619;82;21016;-64
2022/04/27 01:33:30;;;;;;;4.95;4.45;;;;;;;12.58;65.13;99287.48;1704861;82;21028;-66
2022/04/27 01:36:02;;;;;;;4.85;4.05;;;;;;;12.57;65.12;99288.98;1704606;82;20919;-66
2022/04/27 01:38:27;;;;;;;4.55;4.17;;;;;;;12.55;65.14;99282.52;1709307;82;21035;-66
2022/04/27 01:40:56;;;;;;;4.50;4.10;;;;;;;12.53;65.23;99290.39;1705831;82;21260;-66
2022/04/27 01:43:24;;;;;;;4.72;4.33;;;;;;;12.53;65.25;99286.39;1704517;82;20963;-66
2022/04/27 01:45:52;;;;;;;4.58;4.17;;;;;;;12.52;65.30;99286.89;1704596;82;21046;-65
2022/04/27 01:48:21;;;;;;;4.67;4.00;;;;;;;12.51;65.30;99287.09;1715990;82;20966;-65
2022/04/27 01:50:48;;;;;;;4.70;4.30;;;;;;;12.51;65.27;99288.42;1705729;82;20940;-66
2022/04/27 01:56:01;;;;;;;6.00;4.60;;;;;;;12.47;65.31;99285.30;1725114;82;20940;-65
2022/04/27 01:58:30;;;;;;;4.90;4.42;;;;;;;12.45;65.36;99287.33;1730362;81;20967;-65
2022/04/27 02:00:58;;;;;;;5.40;4.87;;;;;;;12.45;65.43;99285.16;1704713;82;20975;-64
2022/04/27 02:03:26;;;;;;;4.40;4.00;;;;;;;12.43;65.45;99286.70;1704724;82;20896;-66
2022/04/27 02:05:52;;;;;;;4.92;4.47;;;;;;;12.41;65.56;99287.36;1704633;82;21270;-65
2022/04/27 02:08:22;;;;;;;4.87;4.47;;;;;;;12.38;65.60;99289.89;1706810;82;20926;-65
2022/04/27 02:10:48;;;;;;;4.90;4.50;;;;;;;12.38;65.67;99293.90;1704627;82;21003;-65
2022/04/27 02:13:16;;;;;;;5.50;4.25;;;;;;;12.36;65.70;99287.93;1704624;82;20955;-65
2022/04/27 02:15:45;;;;;;;5.62;4.67;;;;;;;12.35;65.71;99288.12;1704623;82;20868;-65
2022/04/27 02:18:18;;;;;;;5.58;5.10;;;;;;;12.35;65.76;99288.96;1708511;82;21132;-65
2022/04/27 02:20:45;;;;;;;4.40;4.00;;;;;;;12.34;65.76;99289.96;1704614;82;21437;-65
2022/04/27 02:23:13;;;;;;;5.70;4.60;;;;;;;12.35;65.77;99279.63;1704594;82;20987;-65
2022/04/27 02:25:40;;;;;;;5.40;4.90;;;;;;;12.34;65.79;99282.46;1704498;82;20955;-67
2022/04/27 02:28:07;;;;;;;5.50;4.97;;;;;;;12.30;65.90;99279.86;1706671;82;21085;-65
2022/04/27 02:30:35;;;;;;;6.33;5.80;;;;;;;12.28;65.95;99278.69;1725575;82;21214;-65
2022/04/27 02:33:02;;;;;;;6.97;5.50;;;;;;;12.27;65.97;99278.89;1732598;81;20936;-65
2022/04/27 02:35:29;;;;;;;5.58;5.08;;;;;;;12.25;66.06;99279.06;1732775;82;20979;-65
2022/04/27 02:37:57;;;;;;;6.08;5.50;;;;;;;12.23;66.14;99281.09;1733009;82;21014;-65
2022/04/27 02:40:24;;;;;;;5.58;4.95;;;;;;;12.23;66.18;99285.59;1710509;82;20903;-65
2022/04/27 02:42:54;;;;;;;6.62;5.67;;;;;;;12.20;66.19;99282.79;1704525;82;21556;-65
2022/04/27 02:45:21;;;;;;;7.03;6.33;;;;;;;12.20;66.25;99288.66;1704686;82;20987;-65
2022/04/27 02:47:49;;;;;;;6.53;5.90;;;;;;;12.19;66.26;99285.16;1708265;82;21050;-65
2022/04/27 02:53:01;;;;;;;6.17;5.67;;;;;;;12.17;66.35;99285.85;1704816;82;20912;-66
2022/04/27 02:55:35;;;;;;;6.80;6.20;;;;;;;12.18;66.37;99284.82;1704472;82;21256;-66
2022/04/27 02:58:02;;;;;;;6.78;6.00;;;;;;;12.18;66.42;99291.98;1704752;82;20956;-66
2022/04/27 03:00:30;;;;;;;6.85;6.15;;;;;;;12.16;66.46;99288.19;1705320;82;21039;-66
2022/04/27 03:02:59;;;;;;;6.75;6.15;;;;;;;12.16;66.57;99298.02;1704498;82;21058;-66
2022/04/27 03:05:26;;;;;;;6.60;6.00;;;;;;;12.17;66.59;99293.86;1706247;82;21490;-66
2022/04/27 03:07:54;;;;;;;6.92;5.83;;;;;;;12.16;66.59;99287.35;1698448;83;21148;-66
2022/04/27 03:10:22;;;;;;;6.35;5.75;;;;;;;12.15;66.66;99295.86;1702026;83;21051;-66
2022/04/27 03:12:49;;;;;;;6.37;5.78;;;;;;;12.13;66.70;99299.22;1703433;82;21011;-66
2022/04/27 03:15:17;;;;;;;6.62;6.03;;;;;;;12.12;66.63;99302.88;1703396;82;21123;-65
2022/04/27 03:17:44;;;;;;;7.20;6.30;;;;;;;12.13;66.60;99312.55;1718571;82;21078;-66
2022/04/27 03:20:11;;;;;;;6.55;5.95;;;;;;;12.14;66.61;99312.05;1706036;82;21110;-65
2022/04/27 03:22:40;;;;;;;6.90;6.30;;;;;;;12.13;66.65;99313.88;1703253;82;21580;-65
2022/04/27 03:25:09;;;;;;;6.60;6.00;;;;;;;12.13;66.67;99316.55;1704345;82;20979;-66
2022/04/27 03:27:35;;;;;;;5.87;5.37;;;;;;;12.14;66.67;99315.55;1704521;82;20940;-65
2022/04/27 03:30:03;;;;;;;6.33;5.75;;;;;;;12.13;66.71;99319.72;1722469;82;21002;-65
2022/04/27 03:32:30;;;;;;;6.72;6.08;;;;;;;12.13;66.72;99321.88;1729905;82;21150;-65
2022/04/27 03:34:59;;;;;;;6.47;5.20;;;;;;;12.14;66.78;99326.22;1732466;81;21520;-65
2022/04/27 03:37:27;;;;;;;5.67;5.05;;;;;;;12.14;66.77;99324.88;1732716;81;21386;-65
2022/04/27 03:39:56;;;;;;;5.95;5.40;;;;;;;12.14;66.76;99330.72;1712019;82;21077;-66
2022/04/27 03:42:23;;;;;;;4.95;4.50;;;;;;;12.15;66.73;99333.72;1704630;82;21411;-66
2022/04/27 03:44:52;;;;;;;6.42;4.47;;;;;;;12.13;66.65;99329.88;1704237;82;22210;-65
2022/04/27 03:47:22;;;;;;;5.05;4.60;;;;;;;12.16;66.60;99338.86;1708616;82;21554;-64
2022/04/27 03:49:48;;;;;;;5.08;4.67;;;;;;;12.16;66.59;99338.86;1711527;82;20999;-64
2022/04/27 03:52:15;;;;;;;6.62;5.87;;;;;;;12.20;66.46;99346.80;1704706;82;20976;-64
2022/04/27 03:54:42;;;;;;;5.05;4.65;;;;;;;12.22;66.46;99352.80;1704725;82;21035;-66
2022/04/27 03:57:09;;;;;;;6.15;4.72;;;;;;;12.22;66.46;99351.47;1704647;82;21247;-65
2022/04/27 03:59:35;;;;;;;6.47;4.87;;;;;;;12.25;66.44;99348.94;1710688;82;20911;-66
2022/04/27 04:02:04;;;;;;;5.80;5.12;;;;;;;12.27;66.45;99353.57;1704652;82;20983;-65
2022/04/27 04:04:31;;;;;;;6.35;4.58;;;;;;;12.28;66.48;99353.37;1704510;82;21529;-65
2022/04/27 04:06:58;;;;;;;5.37;4.87;;;;;;;12.32;66.45;99361.84;1704736;82;21034;-66
2022/04/27 04:09:26;;;;;;;5.78;5.17;;;;;;;12.34;66.45;99358.48;1708621;82;21321;-65
2022/04/27 04:11:54;;;;;;;10.23;6.60;;;;;;;12.37;66.42;99362.95;1704585;82;20904;-65
2022/04/27 04:14:31;;;;;;;6.87;6.28;;;;;;;12.44;66.33;99360.86;1704692;82;20990;-66
2022/04/27 04:17:03;;;;;;;8.73;7.87;;;;;;;12.46;66.24;99369.53;1713940;82;20987;-66
2022/04/27 04:19:37;;;;;;;7.03;5.97;;;;;;;12.50;66.15;99367.64;1680068;83;21027;-66
2022/04/27 04:22:06;;;;;;;7.03;5.85;;;;;;;12.54;66.16;99370.77;1704617;82;21426;-65
2022/04/27 04:28:29;;;;;;;7.03;5.50;;;;;;;12.62;65.99;99374.15;1688622;82;21037;-66
2022/04/27 04:29:57;;;;;;;7.30;5.80;;;;;;;12.76;65.68;99375.15;1716261;82;21090;-65
2022/04/27 04:32:25;;;;;;;8.05;6.92;;;;;;;12.83;65.21;99375.55;1704791;82;21418;-65
2022/04/27 04:34:54;;;;;;;7.97;6.72;;;;;;;12.85;65.00;99381.52;1710048;82;22071;-66
2022/04/27 04:37:21;;;;;;;9.28;7.15;;;;;;;12.91;64.82;99379.95;1704556;82;20908;-66
2022/04/27 04:39:50;;;;;;;9.43;7.05;;;;;;;12.97;64.68;99389.39;1714784;82;20987;-66
2022/04/27 04:42:17;;;;;;;8.35;7.55;;;;;;;13.03;64.49;99386.48;1687820;83;20955;-65
2022/04/27 04:44:44;;;;;;;8.00;7.20;;;;;;;13.10;64.29;99386.07;1704678;82;21059;-66
2022/04/27 04:47:25;;;;;;;8.68;7.37;;;;;;;13.18;64.01;99393.97;1719441;82;21496;-65
2022/04/27 04:50:11;;;;;;;8.60;6.72;;;;;;;13.24;63.88;99387.05;1710373;82;21006;-67
2022/04/27 04:52:48;;;;;;;7.70;6.90;;;;;;;13.32;63.73;99395.75;1703078;82;21062;-66
2022/04/27 04:55:18;;;;;;;8.98;7.45;;;;;;;13.41;63.43;99395.95;1702228;82;21463;-65
2022/04/27 04:57:52;;;;;;;8.03;7.22;;;;;;;13.48;63.17;99390.16;1717283;82;20930;-66
2022/04/27 05:00:37;;;;;;;8.43;7.15;;;;;;;13.56;62.93;99394.55;1726111;82;21169;-66
2022/04/27 05:03:08;;;;;;;8.48;6.58;;;;;;;13.67;62.62;99399.39;1696497;82;20959;-65
2022/04/27 05:05:53;;;;;;;8.75;7.90;;;;;;;13.75;62.38;99389.91;1743404;82;20942;-66
2022/04/27 05:08:40;;;;;;;11.63;8.63;;;;;;;13.89;62.11;99396.20;1741077;82;21025;-67
2022/04/27 05:11:11;;;;;;;9.30;8.15;;;;;;;14.00;61.76;99393.00;1745665;82;20929;-64
2022/04/27 05:13:40;;;;;;;13.98;12.00;;;;;;;14.10;61.35;99388.94;1743698;80;21147;-66
2022/04/27 05:16:27;;;;;;;;;;;;;;;14.20;61.00;99397.98;1744464;82;20865;-65
2022/04/27 05:19:13;;;;;;;12.47;8.28;;;;;;;14.35;60.71;99400.06;1743240;82;20101;-66
2022/04/27 05:21:41;;;;;;;9.40;8.50;;;;;;;14.46;60.17;99404.04;1715599;82;21015;-67
2022/04/27 05:24:14;;;;;;;8.95;8.05;;;;;;;14.54;59.78;99402.04;1723816;82;21481;-66
2022/04/27 05:26:42;;;;;;;8.30;7.47;;;;;;;14.66;59.33;99405.80;1730888;80;21796;-66
2022/04/27 05:32:10;;;;;;;7.25;6.55;;;;;;;14.88;59.03;99410.55;1719612;82;20883;-65
2022/04/27 05:34:48;;;;;;;6.92;6.22;;;;;;;15.03;58.42;99413.07;1708367;82;20967;-65
2022/04/27 05:37:25;;;;;;;6.08;5.58;;;;;;;15.12;57.87;99411.34;1745736;82;20891;-67
2022/04/27 05:40:07;;;;;;;6.67;6.15;;;;;;;15.24;57.57;99419.14;1706959;82;21244;-65
2022/04/27 05:42:36;;;;;;;6.05;5.37;;;;;;;15.37;57.07;99421.02;1739849;82;20916;-65
2022/04/27 05:45:07;;;;;;;7.00;6.12;;;;;;;15.48;56.83;99418.30;1707546;82;20958;-66
2022/04/27 05:47:46;;;;;;;6.92;6.22;;;;;;;15.66;56.50;99421.22;1720347;82;20927;-66
2022/04/27 05:50:18;;;;;;;6.75;6.08;;;;;;;15.88;56.05;99422.16;1709237;82;21760;-65
2022/04/27 05:52:58;;;;;;;7.00;6.17;;;;;;;16.08;55.34;99421.64;1720816;82;21270;-65
2022/04/27 05:55:43;;;;;;;6.50;5.78;;;;;;;16.28;54.51;99428.87;1739649;82;21520;-65
2022/04/27 05:58:34;;;;;;;7.05;5.75;;;;;;;16.47;53.66;99431.55;1730094;82;21573;-65
2022/04/27 06:01:01;;;;;;;9.23;6.55;;;;;;;16.57;53.25;99431.97;1685843;82;21073;-65
2022/04/27 06:03:31;;;;;;;7.08;6.25;;;;;;;16.69;53.00;99430.79;1705421;82;20972;-65
2022/04/27 06:05:59;;;;;;;7.35;6.58;;;;;;;16.83;52.69;99435.10;1704427;82;21084;-65
2022/04/27 06:08:27;;;;;;;8.83;7.92;;;;;;;16.95;52.38;99430.71;1713388;82;20857;-64
2022/04/27 06:10:57;;;;;;;12.00;10.82;;;;;;;17.09;52.08;99432.33;1710599;82;21448;-64
2022/04/27 06:13:24;;;;;;;12.35;11.05;;;;;;;17.21;51.31;99436.50;1707052;82;20944;-66
2022/04/27 06:15:53;;;;;;;12.15;11.00;;;;;;;17.25;50.97;99431.84;1717586;82;21118;-65
2022/04/27 06:18:32;;;;;;;12.50;11.30;;;;;;;17.38;50.69;99436.84;1709386;82;21461;-65
2022/04/27 06:20:58;;;;;;;14.73;11.63;;;;;;;17.52;50.37;99447.30;1713511;82;20964;-64
2022/04/27 06:23:27;;;;;;;9.68;8.73;;;;;;;17.65;50.08;99443.22;1730099;82;21491;-64
2022/04/27 06:25:57;;;;;;;9.25;6.95;;;;;;;17.79;49.80;99449.34;1709428;82;21066;-65
2022/04/27 06:28:26;;;;;;;8.78;5.97;;;;;;;17.93;49.29;99455.47;1729692;82;20998;-64
2022/04/27 06:30:54;;;;;;;5.67;5.17;;;;;;;17.99;48.80;99451.37;1707890;81;21477;-63
2022/04/27 06:33:23;;;;;;;6.00;5.40;;;;;;;18.07;48.37;99461.06;1704186;82;21042;-63
2022/04/27 06:35:51;;;;;;;9.38;5.42;;;;;;;18.17;48.16;99457.36;1712738;82;21030;-65
2022/04/27 06:38:18;;;;;;;8.10;4.80;;;;;;;18.30;47.95;99463.44;1707019;82;21084;-67
2022/04/27 06:40:44;;;;;;;6.47;5.30;;;;;;;18.44;47.82;99459.59;1713590;82;21588;-63
2022/04/27 06:43:11;;;;;;;5.30;4.80;;;;;;;18.65;47.33;99456.22;1707849;82;21129;-65
2022/04/27 06:45:39;;;;;;;7.80;5.70;;;;;;;18.89;46.77;99454.83;1643020;82;20932;-65
2022/04/27 06:48:24;;;;;;;6.53;5.33;;;;;;;19.35;46.13;99461.52;1732277;81;21076;-67
2022/04/27 06:51:09;;;;;;;6.08;5.15;;;;;;;19.63;45.41;99453.17;1707262;82;21600;-65
2022/04/27 06:53:41;;;;;;;6.20;5.30;;;;;;;19.93;44.18;99455.03;1705452;82;21129;-65
2022/04/27 06:56:26;;;;;;;8.83;6.03;;;;;;;20.10;43.76;99456.03;1722470;82;22300;-66
2022/04/27 06:58:55;;;;;;;10.75;5.53;;;;;;;20.41;43.51;99458.45;1711891;83;20947;-65
2022/04/27 07:01:23;;;;;;;7.97;7.17;;;;;;;20.79;42.93;99464.19;1705402;83;21051;-67
2022/04/27 07:03:56;;;;;;;7.78;6.33;;;;;;;21.23;41.78;99461.91;1713285;83;21048;-63
2022/04/27 07:06:21;;;;;;;12.82;7.53;;;;;;;21.64;40.82;99466.25;1707497;83;21086;-66
2022/04/27 07:08:48;;;;;;;7.00;6.30;;;;;;;22.04;39.28;99464.30;1718603;83;21296;-65
2022/04/27 07:11:17;;;;;;;9.03;5.70;;;;;;;22.93;37.59;99466.00;1708488;83;21633;-66
2022/04/27 07:13:43;;;;;;;6.80;4.85;;;;;;;23.21;36.69;99468.55;1727353;83;21516;-64
2022/04/27 07:16:10;;;;;;;5.67;3.30;;;;;;;24.00;35.29;99468.91;1708043;83;21118;-66
2022/04/27 07:18:38;;;;;;;2.95;2.72;;;;;;;25.01;33.09;99462.38;1707887;81;20863;-65
2022/04/27 07:21:08;;;;;;;3.30;3.00;;;;;;;25.01;33.09;99462.38;1717726;83;21267;-66
2022/04/27 07:23:33;;;;;;;4.70;2.80;;;;;;;25.87;32.42;99464.60;1718755;82;20998;-67
2022/04/27 07:26:01;;;;;;;2.95;2.65;;;;;;;26.34;31.22;99462.49;1707350;83;21046;-65
2022/04/27 07:28:29;;;;;;;4.17;2.80;;;;;;;26.67;30.49;99463.27;1713804;83;20994;-65
2022/04/27 07:30:56;;;;;;;6.30;2.45;;;;;;;27.33;29.93;99461.75;1709224;83;21531;-65
2022/04/27 07:33:24;;;;;;;3.98;2.60;;;;;;;27.83;29.03;99457.42;1719336;83;21257;-65
2022/04/27 07:35:50;;;;;;;2.67;2.47;;;;;;;27.91;28.10;99465.03;1702516;83;20950;-64
2022/04/27 07:38:17;;;;;;;2.67;2.40;;;;;;;28.21;27.83;99461.27;1699672;83;20927;-64
2022/04/27 07:40:44;;;;;;;2.25;2.08;;;;;;;28.37;27.23;99466.89;1710250;83;21019;-63
2022/04/27 07:43:10;;;;;;;2.17;1.98;;;;;;;28.52;26.30;99471.43;1709306;83;21109;-64
2022/04/27 07:45:39;;;;;;;2.70;2.50;;;;;;;28.59;26.02;99472.72;1710133;83;20859;-65
2022/04/27 07:48:06;;;;;;;2.22;2.02;;;;;;;28.72;25.31;99472.63;1721044;80;20899;-66
2022/04/27 07:50:33;;;;;;;3.00;2.00;;;;;;;28.65;25.30;99470.80;1709224;83;20978;-65
2022/04/27 07:53:01;;;;;;;3.90;2.20;;;;;;;28.80;25.38;99477.48;1700632;83;20967;-63
2022/04/27 07:55:29;;;;;;;3.37;2.40;;;;;;;29.05;24.85;99475.01;1711131;83;20935;-66
2022/04/27 07:57:57;;;;;;;2.90;2.70;;;;;;;28.60;25.29;99479.81;1734468;82;21258;-65
2022/04/27 08:00:24;;;;;;;3.72;2.67;;;;;;;28.35;25.70;99484.69;1743786;82;20915;-66
2022/04/27 08:02:51;;;;;;;2.60;2.10;;;;;;;28.50;25.33;99493.59;1722562;82;21505;-65
2022/04/27 08:05:18;;;;;;;2.55;2.35;;;;;;;28.23;25.41;99494.65;1722672;82;20919;-64
2022/04/27 08:07:46;;;;;;;3.25;2.15;;;;;;;27.91;25.45;99486.08;1722745;82;21459;-65
2022/04/27 08:10:16;;;;;;;2.25;2.05;;;;;;;27.77;25.59;99487.25;1722668;82;21106;-66
2022/04/27 08:12:46;;;;;;;2.67;2.20;;;;;;;27.95;25.84;99487.95;1722674;82;21010;-66
2022/04/27 08:15:14;;;;;;;3.92;2.33;;;;;;;28.00;25.63;99489.86;1722585;82;21532;-66
2022/04/27 08:17:59;;;;;;;3.45;2.27;;;;;;;27.44;26.16;99489.33;1722627;82;21045;-65
2022/04/27 08:23:16;;;;;;;2.35;1.70;;;;;;;26.17;27.48;99500.95;1751338;82;21811;-66
2022/04/27 08:25:45;;;;;;;2.08;1.98;;;;;;;25.52;28.27;99496.13;1751369;82;20951;-66
2022/04/27 08:28:11;;;;;;;2.22;2.02;;;;;;;24.88;29.18;99501.47;1751429;82;21026;-66
2022/04/27 08:30:45;;;;;;;4.80;2.40;;;;;;;24.25;29.92;99507.74;1751481;82;21543;-66
2022/04/27 08:33:13;;;;;;;2.75;2.22;;;;;;;23.81;30.82;99511.08;1751533;82;20942;-67
2022/04/27 08:35:40;;;;;;;2.60;2.40;;;;;;;23.49;31.53;99521.84;1751448;82;21117;-64
2022/04/27 08:38:12;;;;;;;2.33;2.12;;;;;;;23.34;31.80;99522.45;1751403;82;20940;-65
2022/04/27 08:40:44;;;;;;;4.17;2.42;;;;;;;23.19;31.91;99519.54;1751451;82;20895;-65
2022/04/27 08:43:11;;;;;;;2.33;2.22;;;;;;;23.03;32.40;99521.75;1751437;82;21019;-65
2022/04/27 08:45:41;;;;;;;3.58;2.15;;;;;;;22.94;32.68;99521.91;1751483;82;21442;-66
2022/04/27 08:48:10;;;;;;;3.40;2.33;;;;;;;22.71;33.13;99516.65;1751506;82;20987;-68
2022/04/27 08:50:38;;;;;;;2.58;2.37;;;;;;;22.48;33.51;99523.56;1732549;82;20930;-66
2022/04/27 08:53:05;;;;;;;4.62;3.27;;;;;;;22.25;33.70;99525.90;1722841;82;20979;-66
2022/04/27 08:55:32;;;;;;;2.47;2.27;;;;;;;22.17;33.70;99522.23;1722739;82;21099;-66
2022/04/27 08:58:14;;;;;;;3.83;2.12;;;;;;;22.02;33.87;99534.98;1722859;82;20939;-66
2022/04/27 09:00:43;;;;;;;8.18;2.40;;;;;;;21.98;34.20;99532.45;1743890;82;22578;-67
2022/04/27 09:03:28;;;;;;;4.83;2.27;;;;;;;22.10;34.28;99523.75;1751330;82;21556;-66
2022/04/27 09:06:02;;;;;;;4.40;3.35;;;;;;;22.06;33.85;99526.64;1751545;82;20907;-66
2022/04/27 09:08:46;;;;;;;2.70;2.50;;;;;;;21.94;33.80;99531.83;1749716;82;21053;-66
2022/04/27 09:11:26;;;;;;;4.00;1.80;;;;;;;21.76;33.93;99534.70;1721679;82;20955;-65
2022/04/27 09:13:59;;;;;;;5.28;1.82;;;;;;;21.58;34.34;99533.00;1722595;82;20908;-65
2022/04/27 09:22:11;;;;;;;1.75;1.62;;;;;;;21.19;34.53;99531.09;1745372;82;21002;-66
2022/04/27 09:24:52;;;;;;;2.40;1.77;;;;;;;21.10;34.72;99529.27;1751370;82;21021;-65
2022/04/27 09:27:22;;;;;;;3.05;2.20;;;;;;;21.13;34.58;99525.27;1751561;82;21270;-64
2022/04/27 09:30:01;;;;;;;1.75;1.65;;;;;;;21.08;34.36;99524.62;1751312;82;20883;-64
2022/04/27 09:32:28;;;;;;;1.50;1.40;;;;;;;21.06;34.26;99529.46;1751629;82;21488;-65
2022/04/27 09:35:03;;;;;;;1.72;1.62;;;;;;;21.21;33.86;99526.25;1751358;82;21017;-65
2022/04/27 09:37:32;;;;;;;1.98;1.82;;;;;;;21.21;33.86;99526.25;1752039;82;20978;-64
2022/04/27 09:40:12;;;;;;;1.77;1.67;;;;;;;21.37;34.03;99528.23;1741516;82;21363;-65
2022/04/27 09:42:45;;;;;;;6.90;2.20;;;;;;;21.46;33.89;99528.13;1751296;82;21002;-65
2022/04/27 09:45:26;;;;;;;2.42;1.72;;;;;;;21.52;33.52;99528.02;1751558;82;21034;-64
2022/04/27 09:48:03;;;;;;;2.27;2.08;;;;;;;21.41;33.74;99519.38;1751391;82;20970;-64
2022/04/27 09:50:47;;;;;;;2.72;2.00;;;;;;;21.43;33.78;99527.28;1751328;82;20926;-66
2022/04/27 09:53:15;;;;;;;2.50;2.02;;;;;;;21.29;33.72;99532.66;1751361;82;21142;-65
2022/04/27 09:55:47;;;;;;;3.30;2.10;;;;;;;21.04;33.93;99530.72;1751324;82;20982;-66
2022/04/27 09:58:15;;;;;;;2.00;1.90;;;;;;;20.79;34.44;99533.12;1751377;82;20966;-66
2022/04/27 10:00:44;;;;;;;2.80;1.98;;;;;;;20.63;34.52;99535.69;1751376;82;21091;-66
2022/04/27 10:03:18;;;;;;;2.72;2.52;;;;;;;20.47;34.84;99531.80;1751442;82;20970;-67
2022/04/27 10:05:47;;;;;;;1.92;1.82;;;;;;;20.31;35.26;99531.94;1751390;82;21276;-66
2022/04/27 10:08:13;;;;;;;2.50;2.17;;;;;;;20.17;35.61;99537.24;1751363;82;21052;-66
2022/04/27 10:10:41;;;;;;;2.20;2.00;;;;;;;20.09;35.60;99538.08;1751465;82;21517;-66
2022/04/27 10:13:13;;;;;;;2.62;2.10;;;;;;;20.00;35.70;99544.84;1751338;82;21599;-65
2022/04/27 10:15:42;;;;;;;4.28;2.83;;;;;;;19.90;35.90;99540.01;1751388;82;21559;-66
2022/04/27 10:18:15;;;;;;;2.33;2.17;;;;;;;19.87;36.09;99540.98;1751495;82;21222;-66
2022/04/27 10:20:42;;;;;;;2.25;2.02;;;;;;;19.82;35.98;99536.80;1750555;82;20966;-66
2022/04/27 10:23:28;;;;;;;2.50;2.30;;;;;;;19.76;35.51;99539.08;1693970;83;21061;-66
2022/04/27 10:26:17;;;;;;;2.25;2.05;;;;;;;19.74;35.44;99533.89;1742071;82;20871;-65
2022/04/27 10:29:02;;;;;;;2.55;2.35;;;;;;;19.77;35.47;99540.70;1751372;82;21033;-65
2022/04/27 10:31:48;;;;;;;1.90;1.80;;;;;;;19.77;35.63;99536.66;1751486;82;21257;-66
2022/04/27 10:34:21;;;;;;;2.65;1.77;;;;;;;19.73;35.76;99533.06;1751532;82;28165;-64
2022/04/27 10:36:56;;;;;;;2.85;2.05;;;;;;;19.80;35.30;99529.46;1751674;82;20935;-65
2022/04/27 10:39:25;;;;;;;1.85;1.65;;;;;;;19.91;35.06;99529.52;1751407;82;20970;-68
2022/04/27 10:42:10;;;;;;;4.17;2.02;;;;;;;20.08;34.89;99531.02;1751441;82;21540;-64
2022/04/27 10:45:02;;;;;;;2.17;1.98;;;;;;;20.25;34.26;99531.54;1751311;82;21174;-65
2022/04/27 10:47:29;;;;;;;2.92;1.70;;;;;;;20.38;33.69;99526.98;1750638;82;20855;-65
2022/04/27 10:50:18;;;;;;;2.67;2.00;;;;;;;20.56;33.01;99524.18;1720297;82;20911;-65
2022/04/27 10:52:55;;;;;;;3.52;1.60;;;;;;;20.65;31.49;99530.34;1751301;82;20986;-65
2022/04/27 10:55:42;;;;;;;1.37;1.27;;;;;;;20.68;31.53;99531.23;1751460;82;21477;-65
2022/04/27 10:58:21;;;;;;;2.67;2.02;;;;;;;20.78;31.13;99535.53;1751327;82;21225;-65
2022/04/27 11:01:17;;;;;;;3.67;3.08;;;;;;;20.85;32.01;99532.73;1751414;82;21265;-65
2022/04/27 11:03:43;;;;;;;3.35;2.10;;;;;;;20.85;33.01;99539.48;1751593;82;20935;-65
2022/04/27 11:06:12;;;;;;;3.80;2.10;;;;;;;20.91;32.92;99537.17;1741929;82;20982;-66
2022/04/27 11:09:15;;;;;;;2.72;1.90;;;;;;;20.89;32.52;99538.77;1742305;82;20978;-65
2022/04/27 11:11:55;;;;;;;2.58;1.82;;;;;;;20.90;32.37;99536.37;1722779;82;21178;-65
2022/04/27 11:14:34;;;;;;;3.83;1.80;;;;;;;20.92;31.59;99537.47;1741989;82;20927;-66
2022/04/27 11:17:05;;;;;;;2.67;1.90;;;;;;;20.85;31.53;99538.13;1743948;82;21048;-65
2022/04/27 11:19:39;;;;;;;3.77;2.00;;;;;;;20.77;31.61;99546.06;1751276;82;20947;-65
2022/04/27 11:22:12;;;;;;;5.12;1.90;;;;;;;20.68;31.21;99535.81;1751436;82;21361;-66
2022/04/27 11:24:39;;;;;;;2.83;1.72;;;;;;;20.66;31.21;99536.06;1751317;82;21147;-66
2022/04/27 11:27:06;;;;;;;1.80;1.70;;;;;;;20.69;31.48;99539.66;1751376;82;21010;-67
2022/04/27 11:29:34;;;;;;;1.92;1.45;;;;;;;20.68;31.72;99536.64;1751356;82;20994;-65
2022/04/27 11:32:05;;;;;;;2.27;1.92;;;;;;;20.55;31.68;99532.81;1751335;82;21037;-66
2022/04/27 11:34:33;;;;;;;5.12;2.30;;;;;;;20.42;31.97;99537.08;1751570;82;21002;-66
2022/04/27 11:37:16;;;;;;;3.60;1.75;;;;;;;20.25;32.23;99531.54;1751519;82;21276;-66
2022/04/27 11:39:43;;;;;;;4.50;1.50;;;;;;;20.08;32.65;99532.38;1751283;82;21555;-67
2022/04/27 11:42:12;;;;;;;3.15;1.90;;;;;;;19.94;32.71;99535.81;1751314;82;20974;-66
2022/04/27 11:44:40;;;;;;;2.25;2.05;;;;;;;19.86;32.83;99535.30;1751323;82;21564;-66
2022/04/27 11:47:33;;;;;;;2.37;1.80;;;;;;;19.80;33.01;99534.34;1751418;82;20922;-66
2022/04/27 11:50:01;;;;;;;2.10;1.87;;;;;;;19.77;33.33;99539.36;1658187;85;21168;-66
2022/04/27 11:52:31;;;;;;;3.62;1.67;;;;;;;19.78;33.22;99536.97;1718903;82;20891;-66
2022/04/27 11:55:04;;;;;;;3.80;2.00;;;;;;;19.73;32.89;99536.83;1751509;82;20934;-65
2022/04/27 11:57:30;;;;;;;2.58;1.87;;;;;;;19.73;32.61;99536.31;1749625;80;21022;-67
2022/04/27 11:59:57;;;;;;;2.42;1.98;;;;;;;19.73;32.31;99534.13;1751346;82;20943;-67
2022/04/27 12:02:26;;;;;;;5.85;2.08;;;;;;;19.66;32.66;99536.37;1751445;82;21169;-66
2022/04/27 12:04:59;;;;;;;5.15;1.72;;;;;;;19.61;32.84;99534.89;1751398;82;20946;-67
2022/04/27 12:07:34;;;;;;;3.05;1.95;;;;;;;19.58;32.65;99533.16;1751538;82;21434;-65
2022/04/27 12:10:08;;;;;;;2.15;1.75;;;;;;;19.49;32.35;99538.06;1705633;83;21005;-65
2022/04/27 12:12:39;;;;;;;5.58;2.08;;;;;;;19.40;32.67;99534.01;1722334;82;21443;-65